Terminal Aerodrome Forecast
Issued by NWS

Home | Current Version | Previous Version | Text Only | Print | Product List | Glossary On
Versions: 1 2 3 4 5 6 7 8 9 10 11 12 13 14 15 16 17 18 19
000
FTUS42 TJSJ 161725
TAFIST
TAF
TIST 161725Z 1618/1718 06015G25KT P6SM VCSH FEW025 BKN040
      TEMPO 1618/1622 4SM -SHRA BKN030
     FM162300 08015G25KT P6SM VCTS SCT025CB BKN050
     FM170600 10012G22KT P6SM VCSH SCT025 BKN050=

USA.gov is the U.S. government's official web portal to all federal, state and local government web resources and services.